Terminal Aerodrome Forecast
Issued by NWS Birmingham, AL

Home | Current Version | Previous Version | Text Only | Print | Product List | Glossary On
Versions: 1 2 3 4 5 6 7 8 9 10 11 12 13 14 15 16 17 18 19
371
FTUS44 KBMX 251740
TAFBHM
TAF
KBHM 251740Z 2518/2618 26014G20KT P6SM SCT040 BKN050
     FM260100 23003KT P6SM SKC
     FM261400 23010KT P6SM FEW250=

USA.gov is the U.S. government's official web portal to all federal, state and local government web resources and services.